createdAt,value
2017-08-07T00:00:08.974Z,16.00
2017-08-07T00:02:38.025Z,16.00
2017-08-07T00:05:06.356Z,16.00
2017-08-07T00:07:34.635Z,16.00
2017-08-07T00:10:02.928Z,16.00
2017-08-07T00:12:31.245Z,16.00
2017-08-07T00:14:59.615Z,15.90
2017-08-07T00:17:27.915Z,15.80
2017-08-07T00:19:56.236Z,15.80
2017-08-07T00:22:24.628Z,15.80
2017-08-07T00:24:52.935Z,15.70
2017-08-07T00:27:21.232Z,15.70
2017-08-07T00:29:49.567Z,15.70
2017-08-07T00:32:17.908Z,15.70
2017-08-07T00:34:46.230Z,15.70
2017-08-07T00:37:14.576Z,15.70
2017-08-07T00:39:42.868Z,15.70
2017-08-07T00:42:11.163Z,15.70
2017-08-07T00:44:39.501Z,15.70
2017-08-07T00:47:07.800Z,15.70
2017-08-07T00:49:36.155Z,15.70
2017-08-07T00:52:04.490Z,15.70
2017-08-07T00:54:32.783Z,15.70
2017-08-07T00:57:01.062Z,15.70
2017-08-07T00:59:29.368Z,15.70
2017-08-07T01:01:58.416Z,15.60
2017-08-07T01:04:26.711Z,15.50
2017-08-07T01:06:55.052Z,15.60
2017-08-07T01:09:23.336Z,15.50
2017-08-07T01:11:51.611Z,15.50
2017-08-07T01:14:19.927Z,15.50
2017-08-07T01:16:48.206Z,15.40
2017-08-07T01:19:16.511Z,15.40
2017-08-07T01:21:44.827Z,15.40
2017-08-07T01:24:13.136Z,15.30
2017-08-07T01:26:41.458Z,15.30
2017-08-07T01:29:10.540Z,15.20
2017-08-07T01:31:38.850Z,15.20
2017-08-07T01:34:07.143Z,15.20
2017-08-07T01:36:35.427Z,15.10
2017-08-07T01:39:03.740Z,15.10
2017-08-07T01:41:32.048Z,15.10
2017-08-07T01:44:00.335Z,15.00
2017-08-07T01:46:28.666Z,15.00
2017-08-07T01:48:57.751Z,15.00
2017-08-07T01:51:26.075Z,14.90
2017-08-07T01:53:54.379Z,14.90
2017-08-07T01:56:22.660Z,14.90
2017-08-07T01:58:50.991Z,14.90
2017-08-07T02:01:19.325Z,14.90
2017-08-07T02:03:47.603Z,14.90
2017-08-07T02:06:16.683Z,14.80
2017-08-07T02:08:44.999Z,14.80
2017-08-07T02:11:13.317Z,14.70
2017-08-07T02:13:42.383Z,14.60
2017-08-07T02:16:10.693Z,14.60
2017-08-07T02:18:39.002Z,14.60
2017-08-07T02:21:07.299Z,14.50
2017-08-07T02:23:35.623Z,14.60
2017-08-07T02:26:03.906Z,14.50
2017-08-07T02:28:32.203Z,14.50
2017-08-07T02:31:00.507Z,14.50
2017-08-07T02:33:28.786Z,14.50
2017-08-07T02:35:57.095Z,14.40
2017-08-07T02:38:26.172Z,14.40
2017-08-07T02:40:54.508Z,14.30
2017-08-07T02:43:22.844Z,14.30
2017-08-07T02:45:51.145Z,14.70
2017-08-07T02:48:19.506Z,14.30
2017-08-07T02:50:48.571Z,14.30
2017-08-07T02:53:16.851Z,14.30
2017-08-07T02:55:45.193Z,14.30
2017-08-07T02:58:13.479Z,14.30
2017-08-07T03:00:41.780Z,14.30
2017-08-07T03:03:10.111Z,14.30
2017-08-07T03:05:38.409Z,14.20
2017-08-07T03:08:06.774Z,14.20
2017-08-07T03:10:39.890Z,14.20
2017-08-07T03:13:08.299Z,14.20
2017-08-07T03:15:36.625Z,14.10
2017-08-07T03:18:04.898Z,14.20
2017-08-07T03:20:33.183Z,14.10
2017-08-07T03:23:01.491Z,14.00
2017-08-07T03:25:29.771Z,14.00
2017-08-07T03:27:58.823Z,13.90
2017-08-07T03:30:27.143Z,13.90
2017-08-07T03:32:55.423Z,14.00
2017-08-07T03:35:23.700Z,13.90
2017-08-07T03:37:52.035Z,13.90
2017-08-07T03:40:20.323Z,13.90
2017-08-07T03:42:48.607Z,13.90
2017-08-07T03:45:16.927Z,13.80
2017-08-07T03:47:45.336Z,13.80
2017-08-07T03:50:13.642Z,13.80
2017-08-07T03:52:41.973Z,13.70
2017-08-07T03:55:10.265Z,13.70
2017-08-07T03:57:38.575Z,13.70
2017-08-07T04:00:06.920Z,13.70
2017-08-07T04:02:35.251Z,13.70
2017-08-07T04:05:03.535Z,13.70
2017-08-07T04:07:31.859Z,13.70
2017-08-07T04:10:00.140Z,13.70
2017-08-07T04:12:28.466Z,13.70
2017-08-07T04:14:56.792Z,13.60
2017-08-07T04:17:25.111Z,13.60
2017-08-07T04:19:53.404Z,13.60
2017-08-07T04:22:21.727Z,13.60
2017-08-07T04:24:50.773Z,13.60
2017-08-07T04:27:20.307Z,13.70
2017-08-07T04:29:48.619Z,13.60
2017-08-07T04:32:16.907Z,13.60
2017-08-07T04:34:45.230Z,13.60
2017-08-07T04:37:13.522Z,13.60
2017-08-07T04:39:41.808Z,13.60
2017-08-07T04:42:10.130Z,13.60
2017-08-07T04:44:38.435Z,13.60
2017-08-07T04:47:06.732Z,13.60
2017-08-07T04:49:35.042Z,13.60
2017-08-07T04:52:03.322Z,13.70
2017-08-07T04:54:31.607Z,13.80
2017-08-07T04:57:00.705Z,13.80
2017-08-07T04:59:28.991Z,13.80
2017-08-07T05:01:57.274Z,13.80
2017-08-07T05:04:25.585Z,13.80
2017-08-07T05:06:53.866Z,13.90
2017-08-07T05:09:22.141Z,13.90
2017-08-07T05:11:51.222Z,14.00
2017-08-07T05:14:19.502Z,13.90
2017-08-07T05:16:47.783Z,14.00
2017-08-07T05:19:16.103Z,14.00
2017-08-07T05:21:44.386Z,14.00
2017-08-07T05:24:12.660Z,14.10
2017-08-07T05:26:41.754Z,14.10
2017-08-07T05:29:10.727Z,14.10
2017-08-07T05:31:39.030Z,14.20
2017-08-07T05:34:07.390Z,14.20
2017-08-07T05:36:35.708Z,14.30
2017-08-07T05:39:04.019Z,14.40
2017-08-07T05:41:32.347Z,14.50
2017-08-07T05:44:01.725Z,14.60
2017-08-07T05:46:30.199Z,14.70
2017-08-07T05:48:58.542Z,14.90
2017-08-07T05:51:27.632Z,16.10
2017-08-07T05:53:56.321Z,16.10
2017-08-07T05:56:24.611Z,18.10
2017-08-07T05:58:52.949Z,20.20
2017-08-07T06:01:21.292Z,22.10
2017-08-07T06:03:50.241Z,23.50
2017-08-07T06:06:18.533Z,24.70
2017-08-07T06:08:46.893Z,25.60
2017-08-07T06:11:15.966Z,27.10
2017-08-07T06:13:44.259Z,27.00
2017-08-07T06:16:12.579Z,27.60
2017-08-07T06:18:40.880Z,28.10
2017-08-07T06:21:09.157Z,28.50
2017-08-07T06:23:38.238Z,29.30
2017-08-07T06:26:06.514Z,29.20
2017-08-07T06:28:34.794Z,29.50
2017-08-07T06:31:03.143Z,29.70
2017-08-07T06:33:32.549Z,29.90
2017-08-07T06:36:00.834Z,30.30
2017-08-07T06:38:29.447Z,30.50
2017-08-07T06:40:57.726Z,30.90
2017-08-07T06:43:26.020Z,31.00
2017-08-07T06:45:54.354Z,31.10
2017-08-07T06:48:22.648Z,31.50
2017-08-07T06:50:50.990Z,31.80
2017-08-07T06:53:19.284Z,32.10
2017-08-07T06:55:47.571Z,32.20
2017-08-07T06:58:15.880Z,32.20
2017-08-07T07:00:44.159Z,32.30
2017-08-07T07:03:12.448Z,32.40
2017-08-07T07:05:40.757Z,32.40
2017-08-07T07:08:09.048Z,32.40
2017-08-07T07:10:37.332Z,32.40
2017-08-07T07:13:05.643Z,32.40
2017-08-07T07:15:33.939Z,32.50
2017-08-07T07:18:02.241Z,32.40
2017-08-07T07:20:30.563Z,32.50
2017-08-07T07:22:58.844Z,32.50
2017-08-07T07:25:27.128Z,32.40
2017-08-07T07:27:55.467Z,32.50
2017-08-07T07:30:23.751Z,32.50
2017-08-07T07:32:52.030Z,32.70
2017-08-07T07:35:21.131Z,33.10
2017-08-07T07:37:49.410Z,33.10
2017-08-07T07:40:17.699Z,33.20
2017-08-07T07:42:46.015Z,33.20
2017-08-07T07:45:14.301Z,33.30
2017-08-07T07:47:42.593Z,33.40
2017-08-07T07:50:10.903Z,33.20
2017-08-07T07:52:39.194Z,33.10
2017-08-07T07:55:07.476Z,33.20
2017-08-07T07:57:35.799Z,33.30
2017-08-07T08:00:04.098Z,33.40
2017-08-07T08:02:32.391Z,33.50
2017-08-07T08:05:00.716Z,33.50
2017-08-07T08:07:29.006Z,33.30
2017-08-07T08:09:57.309Z,33.40
2017-08-07T08:12:25.614Z,33.40
2017-08-07T08:14:53.908Z,33.40
2017-08-07T08:17:22.228Z,33.60
2017-08-07T08:19:50.546Z,33.80
2017-08-07T08:22:18.831Z,33.70
2017-08-07T08:24:47.131Z,33.50
2017-08-07T08:27:15.455Z,33.40
2017-08-07T08:29:43.739Z,33.40
2017-08-07T08:32:12.034Z,33.40
2017-08-07T08:34:40.380Z,33.40
2017-08-07T08:37:08.685Z,33.30
2017-08-07T08:39:37.759Z,33.20
2017-08-07T08:42:06.128Z,33.10
2017-08-07T08:44:34.459Z,33.20
2017-08-07T08:47:02.755Z,33.20
2017-08-07T08:49:31.100Z,33.20
2017-08-07T08:51:59.401Z,33.20
2017-08-07T08:54:27.699Z,32.80
2017-08-07T08:56:56.045Z,32.40
2017-08-07T08:59:24.334Z,32.20
2017-08-07T09:01:52.626Z,32.10
2017-08-07T09:04:20.966Z,32.00
2017-08-07T09:06:49.259Z,32.10
2017-08-07T09:09:17.550Z,32.00
2017-08-07T09:11:45.877Z,32.00
2017-08-07T09:14:14.174Z,31.90
2017-08-07T09:16:42.470Z,31.80
2017-08-07T09:19:10.813Z,31.40
2017-08-07T09:21:39.143Z,31.20
2017-08-07T09:24:07.446Z,30.30
2017-08-07T09:26:35.774Z,29.80
2017-08-07T09:29:04.088Z,29.50
2017-08-07T09:31:32.385Z,28.60
2017-08-07T09:34:00.730Z,28.30
2017-08-07T09:36:29.034Z,28.20
2017-08-07T09:38:57.356Z,28.30
2017-08-07T09:41:25.685Z,28.20
2017-08-07T09:43:53.991Z,28.10
2017-08-07T09:46:22.290Z,28.00
2017-08-07T09:48:50.628Z,27.90
2017-08-07T09:51:19.697Z,28.20
2017-08-07T09:53:48.038Z,28.20
2017-08-07T09:56:16.367Z,28.50
2017-08-07T09:58:44.665Z,28.50
2017-08-07T10:01:12.967Z,28.50
2017-08-07T10:03:41.298Z,28.60
2017-08-07T10:06:09.613Z,28.70
2017-08-07T10:08:37.909Z,28.70
2017-08-07T10:11:06.252Z,28.60
2017-08-07T10:13:34.549Z,28.50
2017-08-07T10:16:02.849Z,28.40
2017-08-07T10:18:31.187Z,28.10
2017-08-07T10:20:59.496Z,27.70
2017-08-07T10:23:27.800Z,27.40
2017-08-07T10:25:56.133Z,27.10
2017-08-07T10:28:24.424Z,27.10
2017-08-07T10:30:52.723Z,27.40
2017-08-07T10:33:21.056Z,27.30
2017-08-07T10:35:49.354Z,27.10
2017-08-07T10:38:17.673Z,27.20
2017-08-07T10:40:46.012Z,27.10
2017-08-07T10:43:14.692Z,27.00
2017-08-07T10:45:42.997Z,26.90
2017-08-07T10:48:11.324Z,26.90
2017-08-07T10:50:39.619Z,27.00
2017-08-07T10:53:08.755Z,27.50
2017-08-07T10:55:37.146Z,27.50
2017-08-07T10:58:05.441Z,27.30
2017-08-07T11:00:33.816Z,27.10
2017-08-07T11:03:02.189Z,26.80
2017-08-07T11:05:31.275Z,27.10
2017-08-07T11:07:59.589Z,27.10
2017-08-07T11:10:27.941Z,27.20
2017-08-07T11:12:57.186Z,27.50
2017-08-07T11:15:25.490Z,27.80
2017-08-07T11:17:53.881Z,27.80
2017-08-07T11:20:22.200Z,27.70
2017-08-07T11:22:50.527Z,27.40
2017-08-07T11:25:18.858Z,27.40
2017-08-07T11:27:47.200Z,27.50
2017-08-07T11:30:15.537Z,27.40
2017-08-07T11:32:43.904Z,27.10
2017-08-07T11:35:12.199Z,26.90
2017-08-07T11:37:40.569Z,26.40
2017-08-07T11:40:08.953Z,26.10
2017-08-07T11:42:37.261Z,26.20
2017-08-07T11:45:05.579Z,26.30
2017-08-07T11:47:33.965Z,26.30
2017-08-07T11:50:02.311Z,26.30
2017-08-07T11:52:30.611Z,26.30
2017-08-07T11:54:58.910Z,26.20
2017-08-07T11:57:27.261Z,26.10
2017-08-07T11:59:55.561Z,26.00
2017-08-07T12:02:23.859Z,26.10
2017-08-07T12:04:52.199Z,26.30
2017-08-07T12:07:21.275Z,26.70
2017-08-07T12:09:49.585Z,26.70
2017-08-07T12:12:17.921Z,26.50
2017-08-07T12:14:46.285Z,26.10
2017-08-07T12:17:14.583Z,26.00
2017-08-07T12:19:42.932Z,26.10
2017-08-07T12:22:12.012Z,26.60
2017-08-07T12:24:40.315Z,26.60
2017-08-07T12:27:08.721Z,26.60
2017-08-07T12:29:37.023Z,26.70
2017-08-07T12:32:05.317Z,26.70
2017-08-07T12:34:33.930Z,26.30
2017-08-07T12:37:02.274Z,25.80
2017-08-07T12:39:31.448Z,25.50
2017-08-07T12:41:59.785Z,25.50
2017-08-07T12:44:28.091Z,25.40
2017-08-07T12:46:56.396Z,25.30
2017-08-07T12:49:25.598Z,25.50
2017-08-07T12:51:54.006Z,25.70
2017-08-07T12:54:22.316Z,25.90
2017-08-07T12:56:50.698Z,26.00
2017-08-07T12:59:18.998Z,26.20
2017-08-07T13:01:47.296Z,26.20
2017-08-07T13:04:15.643Z,26.20
2017-08-07T13:06:43.968Z,26.50
2017-08-07T13:09:12.282Z,26.40
2017-08-07T13:11:40.625Z,26.40
2017-08-07T13:14:08.933Z,26.30
2017-08-07T13:16:37.239Z,26.50
2017-08-07T13:19:05.580Z,26.50
2017-08-07T13:21:33.907Z,26.40
2017-08-07T13:24:02.966Z,26.40
2017-08-07T13:26:31.300Z,26.40
2017-08-07T13:29:00.361Z,26.50
2017-08-07T13:31:28.670Z,26.50
2017-08-07T13:33:57.011Z,26.30
2017-08-07T13:36:26.075Z,26.40
2017-08-07T13:38:54.411Z,26.40
2017-08-07T13:41:22.759Z,26.40
2017-08-07T13:43:51.063Z,26.50
2017-08-07T13:46:19.354Z,26.50
2017-08-07T13:48:48.457Z,26.00
2017-08-07T13:51:16.756Z,26.00
2017-08-07T13:53:45.053Z,26.00
2017-08-07T13:56:13.382Z,25.90
2017-08-07T13:58:42.440Z,26.30
2017-08-07T14:01:10.735Z,26.30
2017-08-07T14:03:39.069Z,26.40
2017-08-07T14:06:07.361Z,26.40
2017-08-07T14:08:35.662Z,26.50
2017-08-07T14:11:03.992Z,26.50
2017-08-07T14:13:32.288Z,26.60
2017-08-07T14:16:00.577Z,26.60
2017-08-07T14:18:28.918Z,26.50
2017-08-07T14:20:57.977Z,26.60
2017-08-07T14:23:26.270Z,26.60
2017-08-07T14:25:55.504Z,26.50
2017-08-07T14:28:23.796Z,26.20
2017-08-07T14:30:52.113Z,26.00
2017-08-07T14:33:20.456Z,26.00
2017-08-07T14:35:49.513Z,26.10
2017-08-07T14:38:17.814Z,26.10
2017-08-07T14:40:46.155Z,26.30
2017-08-07T14:43:14.676Z,26.30
2017-08-07T14:45:42.965Z,26.20
2017-08-07T14:48:11.310Z,26.10
2017-08-07T14:50:39.615Z,26.20
2017-08-07T14:53:07.906Z,26.00
2017-08-07T14:55:37.006Z,25.80
2017-08-07T14:58:05.305Z,25.80
2017-08-07T15:00:33.595Z,25.70
2017-08-07T15:03:01.925Z,25.80
2017-08-07T15:05:30.983Z,25.70
2017-08-07T15:07:59.285Z,25.70
2017-08-07T15:10:27.616Z,25.80
2017-08-07T15:12:55.954Z,25.90
2017-08-07T15:15:25.025Z,25.90
2017-08-07T15:17:53.349Z,25.90
2017-08-07T15:20:21.656Z,26.10
2017-08-07T15:22:49.957Z,26.10
2017-08-07T15:25:18.304Z,25.80
2017-08-07T15:27:46.604Z,25.80
2017-08-07T15:30:14.936Z,25.80
2017-08-07T15:32:43.242Z,25.90
2017-08-07T15:35:11.538Z,25.80
2017-08-07T15:37:39.870Z,25.70
2017-08-07T15:40:08.167Z,25.70
2017-08-07T15:42:36.482Z,25.70
2017-08-07T15:45:04.825Z,25.60
2017-08-07T15:47:33.884Z,25.40
2017-08-07T15:50:02.237Z,25.40
2017-08-07T15:52:31.337Z,25.40
2017-08-07T15:54:59.680Z,25.40
2017-08-07T15:57:28.665Z,25.60
2017-08-07T15:59:57.736Z,25.70
2017-08-07T16:02:26.040Z,25.80
2017-08-07T16:04:54.347Z,25.90
2017-08-07T16:07:22.709Z,25.70
2017-08-07T16:09:51.774Z,25.40
2017-08-07T16:12:20.088Z,25.40
2017-08-07T16:14:48.420Z,25.50
2017-08-07T16:17:17.670Z,25.60
2017-08-07T16:19:45.987Z,25.50
2017-08-07T16:22:14.516Z,25.70
2017-08-07T16:24:42.818Z,25.70
2017-08-07T16:27:11.115Z,25.60
2017-08-07T16:29:57.312Z,25.60
2017-08-07T16:32:25.666Z,25.60
2017-08-07T16:34:53.988Z,25.60
2017-08-07T16:37:23.082Z,25.50
2017-08-07T16:39:51.430Z,25.50
2017-08-07T16:42:20.507Z,25.30
2017-08-07T16:44:48.826Z,25.30
2017-08-07T16:47:17.161Z,25.20
2017-08-07T16:49:46.254Z,25.30
2017-08-07T16:52:14.557Z,25.30
2017-08-07T16:54:42.904Z,25.30
2017-08-07T16:57:11.235Z,25.30
2017-08-07T16:59:39.645Z,25.40
2017-08-07T17:02:08.783Z,25.20
2017-08-07T17:04:37.156Z,25.20
2017-08-07T17:07:05.501Z,25.20
2017-08-07T17:09:33.833Z,25.20
2017-08-07T17:12:02.130Z,25.20
2017-08-07T17:14:31.252Z,25.20
2017-08-07T17:17:00.309Z,25.30
2017-08-07T17:19:28.609Z,25.20
2017-08-07T17:21:56.945Z,25.20
2017-08-07T17:24:25.264Z,25.10
2017-08-07T17:26:55.098Z,25.20
2017-08-07T17:29:24.225Z,25.20
2017-08-07T17:31:52.795Z,25.20
2017-08-07T17:34:21.177Z,25.10
2017-08-07T17:36:49.598Z,25.00
2017-08-07T17:39:17.935Z,24.90
2017-08-07T17:41:47.027Z,25.00
2017-08-07T17:44:15.419Z,25.00
2017-08-07T17:46:43.725Z,25.10
2017-08-07T17:49:12.081Z,25.00
2017-08-07T17:51:40.418Z,25.10
2017-08-07T17:54:08.710Z,25.00
2017-08-07T17:56:37.046Z,24.90
2017-08-07T17:59:05.385Z,24.80
2017-08-07T18:01:33.694Z,24.70
2017-08-07T18:04:01.989Z,24.60
2017-08-07T18:06:31.114Z,24.50
2017-08-07T18:09:01.079Z,24.50
2017-08-07T18:11:29.583Z,24.50
2017-08-07T18:13:57.916Z,24.40
2017-08-07T18:16:26.218Z,24.30
2017-08-07T18:18:54.582Z,24.20
2017-08-07T18:21:22.896Z,24.00
2017-08-07T18:23:51.199Z,24.00
2017-08-07T18:26:19.541Z,23.90
2017-08-07T18:28:47.831Z,23.90
2017-08-07T18:31:16.941Z,23.80
2017-08-07T18:33:45.857Z,23.80
2017-08-07T18:36:14.158Z,23.70
2017-08-07T18:38:42.830Z,23.60
2017-08-07T18:41:11.935Z,23.60
2017-08-07T18:43:40.228Z,23.50
2017-08-07T18:46:10.652Z,23.50
2017-08-07T18:48:39.060Z,23.40
2017-08-07T18:51:07.897Z,23.40
2017-08-07T18:53:37.748Z,23.20
2017-08-07T18:56:06.042Z,23.30
2017-08-07T18:58:34.374Z,23.20
2017-08-07T19:01:02.758Z,23.20
2017-08-07T19:03:31.831Z,23.10
2017-08-07T19:06:00.196Z,23.00
2017-08-07T19:08:29.341Z,23.00
2017-08-07T19:10:57.787Z,23.00
2017-08-07T19:13:26.093Z,22.90
2017-08-07T19:15:54.438Z,22.90
2017-08-07T19:18:23.493Z,22.90
2017-08-07T19:20:51.789Z,22.90
2017-08-07T19:23:20.124Z,22.80
2017-08-07T19:25:48.884Z,22.80
2017-08-07T19:28:17.236Z,22.70
2017-08-07T19:30:45.664Z,22.60
2017-08-07T19:33:13.953Z,22.50
2017-08-07T19:35:42.249Z,22.50
2017-08-07T19:38:10.583Z,22.40
2017-08-07T19:40:39.639Z,22.30
2017-08-07T19:43:07.932Z,22.30
2017-08-07T19:45:36.285Z,22.30
2017-08-07T19:48:04.606Z,22.30
2017-08-07T19:50:32.905Z,22.30
2017-08-07T19:53:01.997Z,22.10
2017-08-07T19:55:30.367Z,22.10
2017-08-07T19:57:58.722Z,22.10
2017-08-07T20:00:27.017Z,22.00
2017-08-07T20:02:55.316Z,22.00
2017-08-07T20:05:23.644Z,22.00
2017-08-07T20:07:52.701Z,21.80
2017-08-07T20:10:20.990Z,21.80
2017-08-07T20:12:49.330Z,21.80
2017-08-07T20:15:17.626Z,21.70
2017-08-07T20:17:46.728Z,21.60
2017-08-07T20:20:15.103Z,21.50
2017-08-07T20:22:44.164Z,21.30
2017-08-07T20:25:12.550Z,21.30
2017-08-07T20:27:40.879Z,21.30
2017-08-07T20:30:09.176Z,21.20
2017-08-07T20:32:37.471Z,21.20
2017-08-07T20:35:05.878Z,21.10
2017-08-07T20:37:34.179Z,21.00
2017-08-07T20:40:02.521Z,21.00
2017-08-07T20:42:30.861Z,21.00
2017-08-07T20:44:59.197Z,21.00
2017-08-07T20:47:27.485Z,21.00
2017-08-07T20:49:55.817Z,20.90
2017-08-07T20:52:24.174Z,20.90
2017-08-07T20:54:53.248Z,20.80
2017-08-07T20:57:21.629Z,20.80
2017-08-07T20:59:49.939Z,20.80
2017-08-07T21:02:18.233Z,20.70
2017-08-07T21:04:46.578Z,20.70
2017-08-07T21:07:14.869Z,20.70
2017-08-07T21:09:43.166Z,20.70
2017-08-07T21:12:11.507Z,20.70
2017-08-07T21:14:40.580Z,20.60
2017-08-07T21:17:08.875Z,20.60
2017-08-07T21:19:37.210Z,20.50
2017-08-07T21:22:06.306Z,20.40
2017-08-07T21:24:34.607Z,20.40
2017-08-07T21:27:03.006Z,20.30
2017-08-07T21:29:31.410Z,20.30
2017-08-07T21:31:59.714Z,20.30
2017-08-07T21:34:28.069Z,20.30
2017-08-07T21:36:57.133Z,20.20
2017-08-07T21:39:25.433Z,20.10
2017-08-07T21:41:53.778Z,20.10
2017-08-07T21:44:22.081Z,20.10
2017-08-07T21:46:50.374Z,20.10
2017-08-07T21:49:18.710Z,20.10
2017-08-07T21:51:47.738Z,20.00
2017-08-07T21:54:16.034Z,20.00
2017-08-07T21:56:44.404Z,20.00
2017-08-07T21:59:12.703Z,19.90
2017-08-07T22:01:41.002Z,19.90
2017-08-07T22:04:09.328Z,19.90
2017-08-07T22:06:37.625Z,19.90
2017-08-07T22:09:06.681Z,19.70
2017-08-07T22:11:35.057Z,19.70
2017-08-07T22:14:04.104Z,19.70
2017-08-07T22:16:32.389Z,19.70
2017-08-07T22:19:00.722Z,19.60
2017-08-07T22:21:29.021Z,19.60
2017-08-07T22:23:57.314Z,19.60
2017-08-07T22:26:25.655Z,19.60
2017-08-07T22:28:53.954Z,19.60
2017-08-07T22:31:22.273Z,19.50
2017-08-07T22:33:50.601Z,19.50
2017-08-07T22:36:18.937Z,19.40
2017-08-07T22:38:47.229Z,19.40
2017-08-07T22:41:15.577Z,19.30
2017-08-07T22:43:43.887Z,19.30
2017-08-07T22:46:12.174Z,19.30
2017-08-07T22:48:40.504Z,19.30
2017-08-07T22:51:09.560Z,19.20
2017-08-07T22:53:37.849Z,19.20
2017-08-07T22:56:06.178Z,19.10
2017-08-07T22:58:34.473Z,19.10
2017-08-07T23:01:02.785Z,19.10
2017-08-07T23:03:31.105Z,19.00
2017-08-07T23:05:59.391Z,19.00
2017-08-07T23:08:27.729Z,18.90
2017-08-07T23:10:56.033Z,18.90
2017-08-07T23:13:24.320Z,18.90
2017-08-07T23:15:52.644Z,18.90
2017-08-07T23:18:21.702Z,18.70
2017-08-07T23:20:50.008Z,18.70
2017-08-07T23:23:18.339Z,18.70
2017-08-07T23:25:46.630Z,18.70
2017-08-07T23:28:14.933Z,18.70
2017-08-07T23:30:43.272Z,18.50
2017-08-07T23:33:12.342Z,18.40
2017-08-07T23:35:40.641Z,18.40
2017-08-07T23:38:08.973Z,18.40
2017-08-07T23:40:37.270Z,18.40
2017-08-07T23:43:05.585Z,18.40
2017-08-07T23:45:33.918Z,18.40
2017-08-07T23:48:02.218Z,18.40
2017-08-07T23:50:31.281Z,18.30
2017-08-07T23:52:59.604Z,18.30
2017-08-07T23:55:27.902Z,18.30
2017-08-07T23:57:56.211Z,18.30
